Time;durP1;ratioP1;P1;durP2;ratioP2;P2;SDS_P1;SDS_P2;PMS_P1;PMS_P2;Temp;Humidity;BMP_temperature;BMP_pressure;BME280_temperature;BME280_humidity;BME280_pressure;Samples;Min_cycle;Max_cycle;Signal;HPM_P1;HPM_P2
2022/09/30 00:01:00;;;;;;;8.18;7.32;;;13.30;96.60;;;;;;5033145;28;20026;-64
2022/09/30 00:03:27;;;;;;;7.82;7.03;;;13.30;96.80;;;;;;5033165;28;20026;-64
2022/09/30 00:06:01;;;;;;;8.48;7.43;;;13.30;96.80;;;;;;5033111;28;20037;-64
2022/09/30 00:08:27;;;;;;;8.45;7.55;;;13.20;96.70;;;;;;5033417;28;20035;-64
2022/09/30 00:11:05;;;;;;;9.50;7.50;;;13.20;96.70;;;;;;5033167;28;20176;-64
2022/09/30 00:13:36;;;;;;;9.35;7.10;;;13.30;96.60;;;;;;5033212;28;20052;-64
2022/09/30 00:16:02;;;;;;;8.63;6.88;;;13.20;96.50;;;;;;5032934;28;20101;-64
2022/09/30 00:18:28;;;;;;;9.63;8.32;;;13.30;96.50;;;;;;5033008;28;20025;-64
2022/09/30 00:20:53;;;;;;;8.05;7.13;;;13.20;96.50;;;;;;5033265;28;20075;-64
2022/09/30 00:23:20;;;;;;;9.68;7.70;;;13.20;96.50;;;;;;5032852;28;20025;-64
2022/09/30 00:25:47;;;;;;;8.80;7.30;;;13.20;96.50;;;;;;5033025;28;20050;-64
2022/09/30 00:28:13;;;;;;;10.73;8.05;;;13.10;96.60;;;;;;5032799;28;20021;-64
2022/09/30 00:30:39;;;;;;;7.90;6.68;;;13.10;96.50;;;;;;5032955;28;20029;-64
2022/09/30 00:33:04;;;;;;;9.02;6.95;;;13.10;96.60;;;;;;5031283;28;20076;-64
2022/09/30 00:35:30;;;;;;;7.82;6.88;;;13.10;96.60;;;;;;5032600;28;20032;-64
2022/09/30 00:37:55;;;;;;;10.00;7.05;;;13.10;96.50;;;;;;5031545;28;20025;-64
2022/09/30 00:40:21;;;;;;;7.75;6.80;;;13.10;96.60;;;;;;5032831;28;20036;-65
2022/09/30 00:42:46;;;;;;;9.00;7.13;;;13.00;96.60;;;;;;5031216;28;20025;-64
2022/09/30 00:45:12;;;;;;;8.23;7.43;;;13.00;96.60;;;;;;5033216;28;20033;-64
2022/09/30 00:47:44;;;;;;;8.68;7.88;;;13.00;96.60;;;;;;5031331;28;20030;-65
2022/09/30 00:50:32;;;;;;;9.77;6.90;;;13.00;96.70;;;;;;5033052;28;20044;-66
2022/09/30 00:53:24;;;;;;;8.35;7.43;;;13.00;96.60;;;;;;5031390;28;20097;-66
2022/09/30 00:56:01;;;;;;;7.50;6.70;;;13.00;96.50;;;;;;5029300;28;20079;-66
2022/09/30 00:58:29;;;;;;;7.65;6.95;;;13.00;96.50;;;;;;5032907;28;20022;-66
2022/09/30 01:00:56;;;;;;;7.97;7.00;;;12.90;96.50;;;;;;5032739;28;20052;-66
2022/09/30 01:03:22;;;;;;;7.68;6.97;;;12.90;96.50;;;;;;5032480;28;20026;-65
2022/09/30 01:05:49;;;;;;;7.38;6.25;;;12.90;96.40;;;;;;5032821;28;20481;-67
2022/09/30 01:08:17;;;;;;;8.07;6.43;;;12.80;96.60;;;;;;5032447;28;20018;-65
2022/09/30 01:10:44;;;;;;;7.65;6.53;;;12.80;96.70;;;;;;5032385;28;20484;-65
2022/09/30 01:13:10;;;;;;;6.82;6.15;;;12.80;96.50;;;;;;5032641;28;20039;-66
2022/09/30 01:16:16;;;;;;;9.77;6.85;;;12.80;96.50;;;;;;5032584;28;20109;-66
2022/09/30 01:19:12;;;;;;;9.45;6.60;;;12.80;96.50;;;;;;5032262;28;20037;-65
2022/09/30 01:22:01;;;;;;;7.00;6.30;;;12.80;96.60;;;;;;5032306;28;20075;-65
2022/09/30 01:24:41;;;;;;;6.80;6.13;;;12.80;96.60;;;;;;5032184;28;20042;-65
2022/09/30 01:27:40;;;;;;;8.00;5.85;;;12.80;96.50;;;;;;5032303;28;20482;-64
2022/09/30 01:30:44;;;;;;;6.90;6.25;;;12.80;96.50;;;;;;5032359;28;20025;-64
2022/09/30 01:33:47;;;;;;;8.68;6.47;;;12.70;96.50;;;;;;5009050;28;20041;-64
2022/09/30 01:36:19;;;;;;;6.75;6.00;;;12.70;96.80;;;;;;5014044;28;20044;-64
2022/09/30 01:39:06;;;;;;;6.72;6.00;;;12.70;96.60;;;;;;5029708;28;20026;-65
2022/09/30 01:41:56;;;;;;;7.25;6.55;;;12.70;96.60;;;;;;5026154;28;20034;-64
2022/09/30 01:44:25;;;;;;;7.72;6.40;;;12.70;96.60;;;;;;5010200;28;20030;-64
2022/09/30 01:47:11;;;;;;;7.45;6.75;;;12.60;96.60;;;;;;5011166;28;20018;-64
2022/09/30 01:49:48;;;;;;;8.05;7.25;;;12.50;96.90;;;;;;5015765;28;20480;-64
2022/09/30 01:52:17;;;;;;;9.93;6.85;;;12.60;96.80;;;;;;5015925;28;20418;-64
2022/09/30 01:54:54;;;;;;;8.93;7.25;;;12.50;96.80;;;;;;5015476;28;20030;-64
2022/09/30 01:57:35;;;;;;;8.32;6.68;;;12.50;96.90;;;;;;5015901;28;20453;-64
2022/09/30 02:00:07;;;;;;;7.88;7.07;;;12.60;96.90;;;;;;5031169;28;20391;-64
2022/09/30 02:02:45;;;;;;;8.25;6.70;;;12.50;97.00;;;;;;5015674;28;20443;-64
2022/09/30 02:05:17;;;;;;;7.78;6.97;;;12.50;96.80;;;;;;5016108;28;20030;-64
2022/09/30 02:07:53;;;;;;;8.68;7.13;;;12.50;96.80;;;;;;5015428;28;20024;-64
2022/09/30 02:10:33;;;;;;;10.65;7.70;;;12.50;96.80;;;;;;5015537;28;20030;-65
2022/09/30 02:13:21;;;;;;;8.38;7.50;;;12.40;96.80;;;;;;5015566;28;20022;-64
2022/09/30 02:15:55;;;;;;;10.27;7.78;;;12.40;97.00;;;;;;5015613;28;20023;-64
2022/09/30 02:18:46;;;;;;;9.63;7.65;;;12.40;97.10;;;;;;5015253;28;20100;-64
2022/09/30 02:21:18;;;;;;;11.25;8.40;;;12.40;97.10;;;;;;5016987;28;20030;-65
2022/09/30 02:23:46;;;;;;;9.73;7.45;;;12.40;97.10;;;;;;5014756;28;20042;-64
2022/09/30 02:26:17;;;;;;;11.63;8.23;;;12.40;97.20;;;;;;5015332;28;20034;-64
2022/09/30 02:28:51;;;;;;;9.20;8.27;;;12.40;97.20;;;;;;5029918;28;20392;-64
2022/09/30 02:31:19;;;;;;;10.30;9.05;;;12.30;97.40;;;;;;5015224;28;20048;-65
2022/09/30 02:33:59;;;;;;;9.43;7.80;;;12.30;97.50;;;;;;5014898;28;20025;-65
2022/09/30 02:36:33;;;;;;;10.50;8.52;;;12.30;97.40;;;;;;5015174;28;20539;-64
2022/09/30 02:39:04;;;;;;;10.88;9.13;;;12.30;97.50;;;;;;5014966;28;20029;-65
2022/09/30 02:41:36;;;;;;;11.18;9.02;;;12.30;97.40;;;;;;5014862;28;20022;-66
2022/09/30 02:44:01;;;;;;;10.32;8.50;;;12.30;97.30;;;;;;5014987;28;20494;-64
2022/09/30 02:46:40;;;;;;;9.70;8.63;;;12.30;97.20;;;;;;5015403;28;20105;-64
2022/09/30 02:49:21;;;;;;;11.80;8.32;;;12.30;97.10;;;;;;5014686;28;20109;-66
2022/09/30 02:52:14;;;;;;;10.85;8.75;;;12.30;97.10;;;;;;5014150;28;20479;-66
2022/09/30 02:54:51;;;;;;;11.32;8.90;;;12.30;97.00;;;;;;5014734;28;20510;-64
2022/09/30 02:57:27;;;;;;;9.10;8.20;;;12.20;97.10;;;;;;5030056;28;20022;-66
2022/09/30 02:59:53;;;;;;;9.18;8.27;;;12.20;97.40;;;;;;5014558;28;20069;-67
2022/09/30 03:02:20;;;;;;;8.43;7.60;;;12.20;97.30;;;;;;5014656;28;20026;-66
2022/09/30 03:04:48;;;;;;;10.52;8.25;;;12.10;97.30;;;;;;5014395;28;20061;-64
2022/09/30 03:07:14;;;;;;;9.93;8.38;;;12.10;97.20;;;;;;5014259;28;20364;-64
2022/09/30 03:09:39;;;;;;;9.13;8.13;;;12.10;97.20;;;;;;5014402;28;20475;-64
2022/09/30 03:12:12;;;;;;;9.23;8.32;;;12.10;97.20;;;;;;5014439;28;20057;-65
2022/09/30 03:15:03;;;;;;;10.48;7.97;;;12.10;97.30;;;;;;5014553;28;20387;-64
2022/09/30 03:17:55;;;;;;;9.68;8.80;;;12.10;97.40;;;;;;5018819;28;20438;-64
2022/09/30 03:20:50;;;;;;;9.18;8.07;;;12.10;97.20;;;;;;5016431;28;20057;-64
2022/09/30 03:23:27;;;;;;;10.15;9.13;;;12.10;97.10;;;;;;4976599;28;20039;-64
2022/09/30 03:26:07;;;;;;;9.00;8.20;;;12.10;97.20;;;;;;5013822;28;20446;-64
2022/09/30 03:28:37;;;;;;;9.13;8.15;;;12.10;97.30;;;;;;5014259;28;20037;-65
2022/09/30 03:31:19;;;;;;;10.20;9.25;;;12.00;97.40;;;;;;5014081;28;20463;-64
2022/09/30 03:33:54;;;;;;;8.80;8.00;;;12.10;97.50;;;;;;5013811;28;20513;-64
2022/09/30 03:36:38;;;;;;;10.15;9.25;;;12.00;97.60;;;;;;5013617;28;20080;-64
2022/09/30 03:39:28;;;;;;;9.95;8.65;;;12.00;97.60;;;;;;5014224;28;20467;-64
2022/09/30 03:42:13;;;;;;;10.10;9.20;;;12.00;97.50;;;;;;5013873;28;20022;-64
2022/09/30 03:45:05;;;;;;;9.45;8.52;;;11.90;97.60;;;;;;5014170;28;20041;-65
2022/09/30 03:47:36;;;;;;;9.85;8.85;;;11.90;97.40;;;;;;5011863;28;20437;-65
2022/09/30 03:50:06;;;;;;;9.52;8.50;;;11.90;97.30;;;;;;5013450;28;20026;-64
2022/09/30 03:52:33;;;;;;;9.45;8.43;;;11.90;97.30;;;;;;5013629;28;20037;-64
2022/09/30 03:55:03;;;;;;;9.43;8.43;;;11.90;97.40;;;;;;5013570;28;20152;-65
2022/09/30 03:57:30;;;;;;;9.77;8.88;;;11.90;97.40;;;;;;5013479;28;20022;-64
2022/09/30 03:59:59;;;;;;;9.65;8.63;;;11.90;97.30;;;;;;5013569;28;20045;-64
2022/09/30 04:02:25;;;;;;;9.07;8.18;;;11.90;97.30;;;;;;5013358;28;20374;-64
2022/09/30 04:04:51;;;;;;;9.20;8.40;;;11.80;97.30;;;;;;5013224;28;20041;-65
2022/09/30 04:07:17;;;;;;;9.52;8.65;;;11.80;97.20;;;;;;5013326;28;20026;-65
2022/09/30 04:09:42;;;;;;;10.68;9.60;;;11.70;97.40;;;;;;5012934;28;20028;-64
2022/09/30 04:12:08;;;;;;;11.07;9.57;;;11.80;97.50;;;;;;5013435;28;20455;-64
2022/09/30 04:14:34;;;;;;;10.13;8.85;;;11.80;97.60;;;;;;5013526;28;20022;-65
2022/09/30 04:17:00;;;;;;;9.73;8.93;;;11.70;97.60;;;;;;5013508;28;20037;-65
2022/09/30 04:19:26;;;;;;;10.07;8.88;;;11.80;97.40;;;;;;5028025;28;20018;-65
2022/09/30 04:21:52;;;;;;;10.68;9.60;;;11.70;97.50;;;;;;5013172;28;20030;-66
2022/09/30 04:24:20;;;;;;;10.57;9.57;;;11.70;97.50;;;;;;5013121;28;20109;-65
2022/09/30 04:26:45;;;;;;;10.52;9.52;;;11.70;97.50;;;;;;5013195;28;20014;-64
2022/09/30 04:29:11;;;;;;;10.07;9.13;;;11.70;97.40;;;;;;5013524;28;20486;-66
2022/09/30 04:31:36;;;;;;;10.70;9.63;;;11.60;97.40;;;;;;5013106;28;20109;-66
2022/09/30 04:34:02;;;;;;;13.05;9.02;;;11.70;97.40;;;;;;5012932;28;20068;-66
2022/09/30 04:36:27;;;;;;;11.30;10.20;;;11.60;97.50;;;;;;5013192;28;20490;-66
2022/09/30 04:38:53;;;;;;;10.90;9.90;;;11.60;97.60;;;;;;5012974;28;20483;-66
2022/09/30 04:41:19;;;;;;;10.10;9.20;;;11.60;97.60;;;;;;5012950;28;20860;-65
2022/09/30 04:43:46;;;;;;;11.75;10.65;;;11.60;97.60;;;;;;5012987;28;20030;-66
2022/09/30 04:46:17;;;;;;;11.35;10.15;;;11.60;97.70;;;;;;5012794;28;20033;-66
2022/09/30 04:48:44;;;;;;;11.35;10.45;;;11.60;97.80;;;;;;5012803;28;20097;-66
2022/09/30 04:51:11;;;;;;;11.10;10.00;;;11.60;97.90;;;;;;5012997;28;20026;-65
2022/09/30 04:53:38;;;;;;;11.00;10.07;;;11.60;97.80;;;;;;5013261;28;20026;-66
2022/09/30 04:56:04;;;;;;;11.60;10.40;;;11.50;97.80;;;;;;5013091;28;20033;-65
2022/09/30 04:58:31;;;;;;;11.13;10.13;;;11.60;97.80;;;;;;5013106;28;20426;-66
2022/09/30 05:01:12;;;;;;;10.90;9.75;;;11.50;97.80;;;;;;5013788;28;20120;-66
2022/09/30 05:03:38;;;;;;;11.18;10.18;;;11.50;97.70;;;;;;5012562;28;20033;-65
2022/09/30 05:06:04;;;;;;;10.93;9.88;;;11.50;98.00;;;;;;5011060;28;20519;-66
2022/09/30 05:08:32;;;;;;;11.43;9.77;;;11.60;97.60;;;;;;5010492;28;20479;-66
2022/09/30 05:11:04;;;;;;;11.85;10.75;;;11.50;97.70;;;;;;5012847;28;20801;-66
2022/09/30 05:13:33;;;;;;;11.85;10.75;;;11.50;97.60;;;;;;5011990;28;20033;-64
2022/09/30 05:15:58;;;;;;;13.48;10.93;;;11.50;97.70;;;;;;5012929;28;20028;-64
2022/09/30 05:18:27;;;;;;;11.48;10.43;;;11.50;97.80;;;;;;5012316;28;20022;-64
2022/09/30 05:20:56;;;;;;;11.73;10.63;;;11.50;97.90;;;;;;5019472;28;20115;-64
2022/09/30 05:23:22;;;;;;;11.93;10.73;;;11.50;97.90;;;;;;5022327;28;20029;-64
2022/09/30 05:25:49;;;;;;;12.65;11.45;;;11.50;97.80;;;;;;5035040;28;20061;-65
2022/09/30 05:28:14;;;;;;;14.85;13.15;;;11.50;97.90;;;;;;5029166;28;20563;-66
2022/09/30 05:30:42;;;;;;;13.55;12.25;;;11.50;98.00;;;;;;5028453;28;20114;-64
2022/09/30 05:33:08;;;;;;;13.15;11.95;;;11.50;98.10;;;;;;5033697;28;20029;-65
2022/09/30 05:35:34;;;;;;;12.60;11.50;;;11.40;98.10;;;;;;5033828;28;20057;-65
2022/09/30 05:38:02;;;;;;;13.65;12.25;;;11.50;98.10;;;;;;5037472;28;20540;-64
2022/09/30 05:40:27;;;;;;;12.98;11.68;;;11.40;98.10;;;;;;5033180;28;20113;-64
2022/09/30 05:42:55;;;;;;;13.00;11.70;;;11.40;98.20;;;;;;5019571;28;20105;-65
2022/09/30 05:45:21;;;;;;;13.10;11.90;;;11.40;98.30;;;;;;5022918;28;20049;-64
2022/09/30 05:47:53;;;;;;;12.95;11.75;;;11.40;98.40;;;;;;5024670;28;20069;-64
2022/09/30 05:50:21;;;;;;;13.30;11.88;;;11.40;98.50;;;;;;5032257;28;20040;-62
2022/09/30 05:52:47;;;;;;;15.52;12.38;;;11.50;98.50;;;;;;5038110;28;20030;-63
2022/09/30 05:55:12;;;;;;;18.50;14.38;;;11.40;98.50;;;;;;5033611;28;20067;-62
2022/09/30 05:57:38;;;;;;;12.77;11.48;;;11.40;98.70;;;;;;5034579;28;20025;-63
2022/09/30 06:00:05;;;;;;;14.65;13.00;;;11.40;98.70;;;;;;5035255;28;20514;-62
2022/09/30 06:02:32;;;;;;;13.90;12.45;;;11.40;98.70;;;;;;5037584;28;20643;-62
2022/09/30 06:04:57;;;;;;;13.27;11.98;;;11.50;98.60;;;;;;5046796;28;20036;-62
2022/09/30 06:07:23;;;;;;;15.85;13.23;;;11.40;98.60;;;;;;5053328;28;20477;-62
2022/09/30 06:09:48;;;;;;;14.80;13.13;;;11.40;98.70;;;;;;5031206;28;20041;-63
2022/09/30 06:12:14;;;;;;;13.55;12.25;;;11.40;98.70;;;;;;5028453;28;20030;-63
2022/09/30 06:14:40;;;;;;;23.52;14.75;;;11.40;98.90;;;;;;5027350;28;20103;-63
2022/09/30 06:17:06;;;;;;;18.92;14.90;;;11.40;98.90;;;;;;5038629;28;20120;-63
2022/09/30 06:19:32;;;;;;;16.23;14.40;;;11.40;98.80;;;;;;5032281;28;20052;-63
2022/09/30 06:21:57;;;;;;;15.82;14.07;;;11.40;98.90;;;;;;5029937;28;20046;-62
2022/09/30 06:24:23;;;;;;;17.75;13.80;;;11.40;99.00;;;;;;5038525;28;20403;-63
2022/09/30 06:26:49;;;;;;;17.40;14.43;;;11.40;99.10;;;;;;5034804;28;20029;-62
2022/09/30 06:29:15;;;;;;;16.98;14.95;;;11.40;99.00;;;;;;5036226;28;20025;-63
2022/09/30 06:31:41;;;;;;;17.45;14.85;;;11.40;99.10;;;;;;5032226;28;20029;-63
2022/09/30 06:34:09;;;;;;;16.08;14.50;;;11.40;99.20;;;;;;5043904;28;20029;-62
2022/09/30 06:36:34;;;;;;;18.13;14.70;;;11.40;99.10;;;;;;5050078;28;20325;-63
2022/09/30 06:39:00;;;;;;;12.90;11.68;;;11.30;99.30;;;;;;5035454;28;20060;-62
2022/09/30 06:41:26;;;;;;;11.77;10.52;;;11.40;99.40;;;;;;5041165;28;20422;-62
2022/09/30 06:43:53;;;;;;;11.52;10.43;;;11.30;99.60;;;;;;5037401;28;20471;-63
2022/09/30 06:46:20;;;;;;;12.90;11.60;;;11.40;99.70;;;;;;5024777;28;20367;-63
2022/09/30 06:48:45;;;;;;;13.88;11.75;;;11.40;99.80;;;;;;5024184;28;20425;-63
2022/09/30 06:51:11;;;;;;;10.35;9.35;;;11.40;99.90;;;;;;5043812;28;20033;-65
2022/09/30 06:53:38;;;;;;;12.07;10.85;;;11.40;99.90;;;;;;5048478;28;20025;-62
2022/09/30 06:56:05;;;;;;;11.88;9.27;;;11.50;99.90;;;;;;5054174;28;20493;-62
2022/09/30 06:58:31;;;;;;;10.13;9.13;;;11.50;99.90;;;;;;5041224;28;20042;-62
2022/09/30 07:01:02;;;;;;;14.32;10.73;;;11.50;99.90;;;;;;5050028;28;20076;-63
2022/09/30 07:03:31;;;;;;;12.73;11.48;;;11.60;99.90;;;;;;5040626;28;20029;-65
2022/09/30 07:06:02;;;;;;;7.68;6.93;;;11.60;99.90;;;;;;5052526;28;20032;-64
2022/09/30 07:08:33;;;;;;;8.23;6.15;;;11.60;99.90;;;;;;5040785;28;20028;-64
2022/09/30 07:11:01;;;;;;;10.13;8.93;;;11.70;99.90;;;;;;5036805;28;20459;-63
2022/09/30 07:13:27;;;;;;;8.63;7.82;;;11.70;99.90;;;;;;5034406;28;20029;-63
2022/09/30 07:15:55;;;;;;;16.67;11.18;;;11.70;99.90;;;;;;5033528;28;20104;-64
2022/09/30 07:18:21;;;;;;;9.48;8.48;;;11.80;99.90;;;;;;5033800;28;20501;-62
2022/09/30 07:20:51;;;;;;;10.00;9.05;;;11.80;99.90;;;;;;5052909;28;20025;-62
2022/09/30 07:23:17;;;;;;;13.40;12.10;;;11.90;99.90;;;;;;5048953;28;20033;-63
2022/09/30 07:25:50;;;;;;;7.13;6.40;;;11.90;99.90;;;;;;5053423;28;20032;-62
2022/09/30 07:28:16;;;;;;;7.35;5.60;;;12.00;99.90;;;;;;5052638;28;20029;-62
2022/09/30 07:30:42;;;;;;;13.65;12.20;;;12.00;99.90;;;;;;5052038;28;20067;-62
2022/09/30 07:33:09;;;;;;;12.52;11.32;;;12.00;99.90;;;;;;5053459;28;20024;-63
2022/09/30 07:35:36;;;;;;;13.20;11.88;;;12.10;99.90;;;;;;5053667;28;20040;-62
2022/09/30 07:38:02;;;;;;;13.90;11.85;;;12.20;99.90;;;;;;5051679;28;20029;-64
2022/09/30 07:40:30;;;;;;;11.07;9.93;;;12.20;99.90;;;;;;5038758;28;20024;-62
2022/09/30 07:42:56;;;;;;;13.95;11.25;;;12.30;99.90;;;;;;5042697;28;20113;-63
2022/09/30 07:45:22;;;;;;;13.48;11.23;;;12.30;99.90;;;;;;5035309;28;20111;-63
2022/09/30 07:47:48;;;;;;;14.60;11.32;;;12.40;99.90;;;;;;5053551;28;20413;-62
2022/09/30 07:50:14;;;;;;;15.18;10.75;;;12.40;99.90;;;;;;5053234;28;20039;-62
2022/09/30 07:52:40;;;;;;;21.58;12.27;;;12.40;99.90;;;;;;5053199;28;20036;-63
2022/09/30 07:55:06;;;;;;;16.88;11.68;;;12.50;99.90;;;;;;5044890;28;20033;-62
2022/09/30 07:57:31;;;;;;;13.38;11.32;;;12.50;99.90;;;;;;5032797;28;20064;-62
2022/09/30 07:59:57;;;;;;;13.10;11.45;;;12.60;99.90;;;;;;5030878;28;20056;-62
2022/09/30 08:02:23;;;;;;;12.25;10.43;;;12.60;99.90;;;;;;5033994;28;20028;-63
2022/09/30 08:04:49;;;;;;;10.52;8.25;;;12.60;99.90;;;;;;5031702;28;20044;-62
2022/09/30 08:07:16;;;;;;;13.43;10.68;;;12.70;99.90;;;;;;5032598;28;20108;-62
2022/09/30 08:09:42;;;;;;;13.63;11.10;;;12.80;99.90;;;;;;5032449;28;20009;-62
2022/09/30 08:12:08;;;;;;;14.48;10.13;;;12.80;99.90;;;;;;5039780;28;20025;-62
2022/09/30 08:14:34;;;;;;;14.50;9.65;;;12.80;99.90;;;;;;5041561;28;20026;-62
2022/09/30 08:17:00;;;;;;;12.25;10.15;;;12.90;99.90;;;;;;5045577;28;20024;-63
2022/09/30 08:19:27;;;;;;;13.98;11.63;;;12.90;99.90;;;;;;5052739;28;20021;-62
2022/09/30 08:21:53;;;;;;;16.50;11.18;;;12.90;99.90;;;;;;5038021;28;20033;-62
2022/09/30 08:24:19;;;;;;;18.48;12.80;;;13.00;99.90;;;;;;5038831;28;20029;-64
2022/09/30 08:26:45;;;;;;;17.00;12.63;;;13.00;99.90;;;;;;5032425;28;20029;-64
2022/09/30 08:29:12;;;;;;;15.95;12.10;;;13.10;99.90;;;;;;5037395;28;20037;-62
2022/09/30 08:31:38;;;;;;;17.35;13.50;;;13.10;99.90;;;;;;5037478;28;20018;-62
2022/09/30 08:34:03;;;;;;;15.73;12.70;;;13.10;99.90;;;;;;5041924;28;20029;-63
2022/09/30 08:36:29;;;;;;;11.88;10.55;;;13.10;99.90;;;;;;5032240;28;20029;-62
2022/09/30 08:38:56;;;;;;;12.45;10.60;;;13.10;99.90;;;;;;5034021;28;20065;-62
2022/09/30 08:41:40;;;;;;;20.85;9.43;;;13.20;99.90;;;;;;5046558;28;20040;-65
2022/09/30 08:44:39;;;;;;;12.90;9.27;;;13.30;99.90;;;;;;5041660;28;20034;-65
2022/09/30 08:47:45;;;;;;;14.25;7.43;;;13.30;99.90;;;;;;5013091;28;20037;-66
2022/09/30 08:50:46;;;;;;;12.80;7.43;;;13.30;99.90;;;;;;5030341;28;20075;-65
2022/09/30 08:53:22;;;;;;;10.68;4.78;;;13.40;99.90;;;;;;5031223;28;20033;-66
2022/09/30 08:55:48;;;;;;;14.00;3.80;;;13.50;99.90;;;;;;5035068;28;20047;-67
2022/09/30 08:58:19;;;;;;;13.90;6.15;;;13.60;99.90;;;;;;5055506;28;20104;-66
2022/09/30 09:00:44;;;;;;;12.88;4.88;;;13.70;99.80;;;;;;5051250;28;20112;-63
2022/09/30 09:03:13;;;;;;;12.00;8.13;;;13.70;99.90;;;;;;5041270;28;20088;-65
2022/09/30 09:05:46;;;;;;;12.07;6.32;;;13.70;99.90;;;;;;5036699;28;20037;-69
2022/09/30 09:08:39;;;;;;;11.10;7.35;;;13.70;99.90;;;;;;5036147;28;20018;-66
2022/09/30 09:11:23;;;;;;;;;;;13.80;99.90;;;;;;5049436;28;20036;-65
2022/09/30 09:14:00;;;;;;;8.82;6.72;;;13.80;99.90;;;;;;5042917;28;20344;-66
2022/09/30 09:16:41;;;;;;;11.23;7.72;;;13.80;99.90;;;;;;5044422;28;20029;-66
2022/09/30 09:19:14;;;;;;;10.13;6.97;;;13.90;99.90;;;;;;5036335;28;20375;-65
2022/09/30 09:21:56;;;;;;;12.43;6.18;;;14.00;99.90;;;;;;5037624;28;21366;-66
2022/09/30 09:24:49;;;;;;;8.80;6.88;;;14.10;99.90;;;;;;5035690;28;20049;-63
2022/09/30 09:27:39;;;;;;;11.18;6.47;;;14.10;99.90;;;;;;5035061;28;20542;-63
2022/09/30 09:30:18;;;;;;;10.88;6.57;;;14.10;99.90;;;;;;5024508;28;20229;-64
2022/09/30 09:32:56;;;;;;;16.05;5.93;;;14.20;99.90;;;;;;5044004;28;20033;-63
2022/09/30 09:35:52;;;;;;;9.48;6.05;;;14.20;99.90;;;;;;5035963;28;20033;-63
2022/09/30 09:38:34;;;;;;;18.10;5.32;;;14.20;99.90;;;;;;5034468;28;20501;-66
2022/09/30 09:41:06;;;;;;;15.27;6.43;;;14.30;99.90;;;;;;5040195;28;20390;-62
2022/09/30 09:43:37;;;;;;;14.77;6.03;;;14.30;99.90;;;;;;5051666;28;20029;-61
2022/09/30 09:46:14;;;;;;;12.38;5.32;;;14.40;99.90;;;;;;5039838;28;20022;-61
2022/09/30 09:48:39;;;;;;;9.25;6.40;;;14.40;99.90;;;;;;5038518;28;20494;-61
2022/09/30 09:51:38;;;;;;;11.40;6.88;;;14.40;99.90;;;;;;5037363;28;20025;-62
2022/09/30 09:54:08;;;;;;;8.65;5.50;;;14.50;99.90;;;;;;5032727;28;20090;-62
2022/09/30 09:56:36;;;;;;;11.70;5.47;;;14.40;99.90;;;;;;5034415;28;20017;-64
2022/09/30 09:59:09;;;;;;;9.45;4.70;;;14.40;99.90;;;;;;5033947;28;20501;-64
2022/09/30 10:01:38;;;;;;;9.98;4.80;;;14.50;99.90;;;;;;5040607;28;20491;-63
2022/09/30 10:04:17;;;;;;;8.82;5.68;;;14.50;99.90;;;;;;5033548;28;20049;-63
2022/09/30 10:06:56;;;;;;;9.75;4.93;;;14.50;99.90;;;;;;5032824;28;20021;-64
2022/09/30 10:09:39;;;;;;;10.13;5.00;;;14.50;99.90;;;;;;5033596;28;20036;-63
2022/09/30 10:12:04;;;;;;;26.30;6.25;;;14.50;99.90;;;;;;5036351;28;20048;-62
2022/09/30 10:14:31;;;;;;;9.50;4.95;;;14.60;99.90;;;;;;5037870;28;20475;-61
2022/09/30 10:16:59;;;;;;;10.30;5.63;;;14.50;99.90;;;;;;5033456;28;20017;-63
2022/09/30 10:19:27;;;;;;;8.85;4.40;;;14.50;99.90;;;;;;5033029;28;20540;-63
2022/09/30 10:22:08;;;;;;;10.98;5.53;;;14.50;99.90;;;;;;5034023;28;20022;-62
2022/09/30 10:24:36;;;;;;;9.57;5.10;;;14.50;99.90;;;;;;5032660;28;20037;-62
2022/09/30 10:27:02;;;;;;;10.20;5.05;;;14.50;99.90;;;;;;5043904;28;20032;-62
2022/09/30 10:29:34;;;;;;;12.63;5.03;;;14.50;99.90;;;;;;5037952;28;20074;-61
2022/09/30 10:32:06;;;;;;;6.90;4.45;;;14.50;99.90;;;;;;5039162;28;20029;-62
2022/09/30 10:34:42;;;;;;;6.85;3.42;;;14.50;99.90;;;;;;5034631;28;20021;-63
2022/09/30 10:37:17;;;;;;;6.88;3.88;;;14.50;99.90;;;;;;5035476;28;20025;-64
2022/09/30 10:39:49;;;;;;;7.68;3.47;;;14.60;99.90;;;;;;5034796;28;20021;-63
2022/09/30 10:42:25;;;;;;;9.15;3.65;;;14.50;99.90;;;;;;5037403;28;20061;-62
2022/09/30 10:44:55;;;;;;;6.45;3.20;;;14.50;99.90;;;;;;5034817;28;20478;-62
2022/09/30 10:47:25;;;;;;;6.40;3.38;;;14.60;99.90;;;;;;5035813;28;20071;-62
2022/09/30 10:49:58;;;;;;;4.88;3.20;;;14.60;99.80;;;;;;5033738;28;20029;-62
2022/09/30 10:52:30;;;;;;;7.82;2.95;;;14.60;99.80;;;;;;5034287;28;20025;-62
2022/09/30 10:54:58;;;;;;;7.35;2.85;;;14.70;99.80;;;;;;5041127;28;20132;-64
2022/09/30 10:57:28;;;;;;;6.45;2.63;;;14.70;99.70;;;;;;5031030;28;20025;-63
2022/09/30 11:00:14;;;;;;;5.03;2.80;;;14.70;99.70;;;;;;5031933;28;20513;-62
2022/09/30 11:03:02;;;;;;;3.45;1.92;;;14.70;99.40;;;;;;5034276;28;20025;-61
2022/09/30 11:05:38;;;;;;;4.70;2.30;;;14.80;99.30;;;;;;5033369;28;20033;-62
2022/09/30 11:08:15;;;;;;;5.45;2.38;;;14.70;99.10;;;;;;5034881;28;20037;-61
2022/09/30 11:10:41;;;;;;;5.22;1.85;;;14.80;99.10;;;;;;5022072;28;20032;-61
2022/09/30 11:13:26;;;;;;;8.90;2.22;;;14.80;99.40;;;;;;5029823;28;20029;-61
2022/09/30 11:16:31;;;;;;;6.25;2.00;;;14.80;99.10;;;;;;5040766;28;20462;-62
2022/09/30 11:19:09;;;;;;;6.68;2.17;;;14.90;99.10;;;;;;5029713;28;20076;-62
2022/09/30 11:21:59;;;;;;;2.65;2.00;;;14.90;99.10;;;;;;5036340;28;20022;-62
2022/09/30 11:24:33;;;;;;;4.32;1.65;;;14.90;98.80;;;;;;5028076;28;20038;-62
2022/09/30 11:27:18;;;;;;;6.20;1.92;;;15.00;98.90;;;;;;5027144;28;20017;-62
2022/09/30 11:30:00;;;;;;;3.05;1.60;;;15.00;98.00;;;;;;5036989;28;20061;-62
2022/09/30 11:32:57;;;;;;;3.80;2.10;;;15.00;97.60;;;;;;5033374;28;20433;-62
2022/09/30 11:35:42;;;;;;;3.85;2.45;;;15.00;97.50;;;;;;5005456;28;20156;-62
2022/09/30 11:38:25;;;;;;;4.63;2.33;;;15.10;97.20;;;;;;5034804;28;20057;-61
2022/09/30 11:40:58;;;;;;;3.15;1.58;;;15.10;97.40;;;;;;5022656;28;20067;-62
2022/09/30 11:43:34;;;;;;;7.95;2.00;;;15.10;97.60;;;;;;5036954;28;20021;-62
2022/09/30 11:46:12;;;;;;;5.78;1.92;;;15.20;97.60;;;;;;5030954;28;20029;-62
2022/09/30 11:48:51;;;;;;;4.10;2.33;;;15.30;97.50;;;;;;5032210;28;20031;-62
2022/09/30 11:51:49;;;;;;;4.80;1.50;;;15.30;97.30;;;;;;5038483;28;20056;-65
2022/09/30 11:54:36;;;;;;;3.63;1.30;;;15.20;97.40;;;;;;5044609;28;20029;-63
2022/09/30 11:57:26;;;;;;;3.78;1.65;;;15.30;97.50;;;;;;5034718;28;20048;-62
2022/09/30 12:00:00;;;;;;;2.47;1.33;;;15.30;97.50;;;;;;5030228;28;20100;-64
2022/09/30 12:02:39;;;;;;;2.10;1.10;;;15.30;97.50;;;;;;5033540;28;20057;-62
2022/09/30 12:05:25;;;;;;;2.55;1.20;;;15.30;97.60;;;;;;5037285;28;20032;-63
2022/09/30 12:07:56;;;;;;;3.50;1.10;;;15.40;97.80;;;;;;5041897;28;20025;-64
2022/09/30 12:10:47;;;;;;;3.40;1.30;;;15.40;97.50;;;;;;5030773;28;20548;-62
2022/09/30 12:13:30;;;;;;;5.38;1.25;;;15.40;97.40;;;;;;5014253;28;20042;-62
2022/09/30 12:15:57;;;;;;;3.80;1.20;;;15.40;97.50;;;;;;5049178;28;20037;-63
2022/09/30 12:18:29;;;;;;;7.63;1.35;;;15.40;97.60;;;;;;5037694;28;20091;-63
2022/09/30 12:21:00;;;;;;;4.13;1.17;;;15.50;97.60;;;;;;5040390;28;20029;-62
2022/09/30 12:23:38;;;;;;;4.77;1.90;;;15.50;97.60;;;;;;5035886;28;20561;-64
2022/09/30 12:26:05;;;;;;;5.03;1.48;;;15.50;97.60;;;;;;5030567;28;20033;-63
2022/09/30 12:31:59;;;;;;;3.58;2.05;;;15.60;97.60;;;;;;5031876;28;20076;-63
2022/09/30 12:34:34;;;;;;;4.40;2.00;;;15.60;97.70;;;;;;5032916;28;20025;-65
2022/09/30 12:37:21;;;;;;;3.25;1.40;;;15.60;97.70;;;;;;5032314;28;20124;-64
2022/09/30 12:40:05;;;;;;;2.85;1.63;;;15.60;97.70;;;;;;5032943;28;20398;-64
2022/09/30 12:42:56;;;;;;;3.53;1.30;;;15.70;97.60;;;;;;5032375;28;20035;-63
2022/09/30 12:45:28;;;;;;;3.20;1.60;;;15.70;97.80;;;;;;5032276;28;20037;-64
2022/09/30 12:47:57;;;;;;;2.33;1.25;;;15.70;97.70;;;;;;5032809;28;20037;-63
2022/09/30 12:50:27;;;;;;;1.73;1.15;;;15.70;97.70;;;;;;5032583;28;20021;-64
2022/09/30 12:52:56;;;;;;;3.40;1.55;;;15.70;97.60;;;;;;5032627;28;20075;-63
2022/09/30 12:55:29;;;;;;;3.60;2.30;;;15.70;97.60;;;;;;5046634;28;20034;-63
2022/09/30 12:58:00;;;;;;;4.72;2.53;;;15.80;97.60;;;;;;5039129;28;20033;-63
2022/09/30 13:00:33;;;;;;;4.53;3.80;;;15.80;97.60;;;;;;5028519;28;20068;-63
2022/09/30 13:03:06;;;;;;;4.63;1.35;;;15.80;97.30;;;;;;5031705;28;20032;-62
2022/09/30 13:05:37;;;;;;;5.55;3.35;;;15.90;97.30;;;;;;5043979;28;20470;-62
2022/09/30 13:08:03;;;;;;;2.17;1.20;;;15.90;97.20;;;;;;5030388;28;20021;-62
2022/09/30 13:10:38;;;;;;;3.30;2.72;;;15.90;97.30;;;;;;5035780;28;20025;-62
2022/09/30 13:13:09;;;;;;;5.03;1.90;;;15.90;97.20;;;;;;5037645;28;20032;-62